createdAt,value
2017-07-06T00:01:19.259Z,85.70
2017-07-06T00:03:46.717Z,85.50
2017-07-06T00:06:14.198Z,85.40
2017-07-06T00:08:42.445Z,86.20
2017-07-06T00:11:09.899Z,85.50
2017-07-06T00:13:37.376Z,85.70
2017-07-06T00:16:04.846Z,85.90
2017-07-06T00:18:32.311Z,86.10
2017-07-06T00:21:00.546Z,86.00
2017-07-06T00:23:28.043Z,86.00
2017-07-06T00:25:56.258Z,86.50
2017-07-06T00:28:23.730Z,86.50
2017-07-06T00:30:51.198Z,86.50
2017-07-06T00:33:18.669Z,86.60
2017-07-06T00:35:46.134Z,86.40
2017-07-06T00:38:14.386Z,86.70
2017-07-06T00:40:41.871Z,86.70
2017-07-06T00:43:10.111Z,86.60
2017-07-06T00:45:37.580Z,86.60
2017-07-06T00:48:05.038Z,86.70
2017-07-06T00:50:32.493Z,86.70
2017-07-06T00:52:59.970Z,86.90
2017-07-06T00:55:28.199Z,86.90
2017-07-06T00:57:55.694Z,86.90
2017-07-06T01:00:23.178Z,87.30
2017-07-06T01:02:50.668Z,87.40
2017-07-06T01:05:18.139Z,87.20
2017-07-06T01:07:45.622Z,87.30
2017-07-06T01:10:13.090Z,87.20
2017-07-06T01:12:40.552Z,87.10
2017-07-06T01:15:08.080Z,87.30
2017-07-06T01:17:35.546Z,87.70
2017-07-06T01:20:03.015Z,88.10
2017-07-06T01:22:30.479Z,88.10
2017-07-06T01:24:58.705Z,88.00
2017-07-06T01:27:26.167Z,87.90
2017-07-06T01:29:53.703Z,87.80
2017-07-06T01:32:21.155Z,87.80
2017-07-06T01:34:48.631Z,87.80
2017-07-06T01:37:16.101Z,88.00
2017-07-06T01:39:43.596Z,88.10
2017-07-06T01:42:11.844Z,87.90
2017-07-06T01:44:39.293Z,87.70
2017-07-06T01:47:06.750Z,88.00
2017-07-06T01:49:34.248Z,88.00
2017-07-06T01:52:02.471Z,87.90
2017-07-06T01:54:30.008Z,87.70
2017-07-06T01:56:57.478Z,87.70
2017-07-06T01:59:24.954Z,87.70
2017-07-06T02:01:52.431Z,87.80
2017-07-06T02:04:19.923Z,88.20
2017-07-06T02:06:47.387Z,88.40
2017-07-06T02:09:14.844Z,88.60
2017-07-06T02:11:42.305Z,89.20
2017-07-06T02:14:09.778Z,89.60
2017-07-06T02:16:37.238Z,89.40
2017-07-06T02:19:04.706Z,89.40
2017-07-06T02:21:32.175Z,89.70
2017-07-06T02:23:59.647Z,89.80
2017-07-06T02:26:27.867Z,90.00
2017-07-06T02:28:55.344Z,90.00
2017-07-06T02:31:22.877Z,90.00
2017-07-06T02:33:50.326Z,90.00
2017-07-06T02:36:17.828Z,89.90
2017-07-06T02:38:45.299Z,89.90
2017-07-06T02:41:12.768Z,90.00
2017-07-06T02:43:41.019Z,90.20
2017-07-06T02:46:08.486Z,90.20
2017-07-06T02:48:35.947Z,90.20
2017-07-06T02:51:03.424Z,90.10
2017-07-06T02:53:30.887Z,90.00
2017-07-06T02:55:58.350Z,90.30
2017-07-06T02:58:25.831Z,89.30
2017-07-06T03:00:53.294Z,89.10
2017-07-06T03:03:20.769Z,89.10
2017-07-06T03:05:48.247Z,89.10
2017-07-06T03:08:16.466Z,90.00
2017-07-06T03:10:43.974Z,89.20
2017-07-06T03:13:18.184Z,89.70
2017-07-06T03:15:45.647Z,89.70
2017-07-06T03:18:13.883Z,90.00
2017-07-06T03:20:41.350Z,90.00
2017-07-06T03:23:08.825Z,90.00
2017-07-06T03:25:36.300Z,90.00
2017-07-06T03:28:04.546Z,90.10
2017-07-06T03:30:32.013Z,90.40
2017-07-06T03:32:59.475Z,90.00
2017-07-06T03:35:27.719Z,90.20
2017-07-06T03:37:55.200Z,90.00
2017-07-06T03:40:22.679Z,90.00
2017-07-06T03:42:50.920Z,90.00
2017-07-06T03:45:18.380Z,90.00
2017-07-06T03:47:45.842Z,90.10
2017-07-06T03:50:13.402Z,90.20
2017-07-06T03:52:40.868Z,90.30
2017-07-06T03:55:08.327Z,90.50
2017-07-06T03:57:36.576Z,90.60
2017-07-06T04:00:04.043Z,90.60
2017-07-06T04:02:31.535Z,90.60
2017-07-06T04:04:59.770Z,90.90
2017-07-06T04:07:27.239Z,90.90
2017-07-06T04:09:54.695Z,91.20
2017-07-06T04:12:22.165Z,91.30
2017-07-06T04:14:50.453Z,91.70
2017-07-06T04:17:18.709Z,91.80
2017-07-06T04:19:46.162Z,91.70
2017-07-06T04:22:13.647Z,91.80
2017-07-06T04:24:41.100Z,91.70
2017-07-06T04:27:08.589Z,91.70
2017-07-06T04:29:36.100Z,91.60
2017-07-06T04:32:04.454Z,91.30
2017-07-06T04:34:32.012Z,91.30
2017-07-06T04:36:59.478Z,91.30
2017-07-06T04:39:26.944Z,91.00
2017-07-06T04:41:54.425Z,90.80
2017-07-06T04:44:22.687Z,90.40
2017-07-06T04:46:50.906Z,89.90
2017-07-06T04:49:18.384Z,89.90
2017-07-06T04:51:45.851Z,90.00
2017-07-06T04:54:13.429Z,89.70
2017-07-06T04:56:40.894Z,89.60
2017-07-06T04:59:09.140Z,89.80
2017-07-06T05:01:36.644Z,89.80
2017-07-06T05:04:04.128Z,89.70
2017-07-06T05:06:31.596Z,89.80
2017-07-06T05:08:59.058Z,90.00
2017-07-06T05:11:26.536Z,89.90
2017-07-06T05:13:54.004Z,90.00
2017-07-06T05:16:22.227Z,90.10
2017-07-06T05:18:49.712Z,90.10
2017-07-06T05:21:17.200Z,90.10
2017-07-06T05:23:44.649Z,90.00
2017-07-06T05:26:12.891Z,90.00
2017-07-06T05:28:40.350Z,90.00
2017-07-06T05:31:07.831Z,90.00
2017-07-06T05:33:36.096Z,88.90
2017-07-06T05:36:03.585Z,89.30
2017-07-06T05:38:31.064Z,89.30
2017-07-06T05:40:58.561Z,89.30
2017-07-06T05:43:26.044Z,89.40
2017-07-06T05:45:53.562Z,89.60
2017-07-06T05:48:21.034Z,89.90
2017-07-06T05:50:48.499Z,89.90
2017-07-06T05:53:15.962Z,90.00
2017-07-06T05:55:43.430Z,90.00
2017-07-06T05:58:11.654Z,90.20
2017-07-06T06:00:39.117Z,90.10
2017-07-06T06:03:06.588Z,90.30
2017-07-06T06:05:34.058Z,88.10
2017-07-06T06:08:01.562Z,83.40
2017-07-06T06:10:29.034Z,78.10
2017-07-06T06:12:56.493Z,72.80
2017-07-06T06:15:23.991Z,68.20
2017-07-06T06:17:51.452Z,63.40
2017-07-06T06:20:19.695Z,57.90
2017-07-06T06:22:47.155Z,57.70
2017-07-06T06:25:14.627Z,55.70
2017-07-06T06:27:42.090Z,53.50
2017-07-06T06:30:10.330Z,51.70
2017-07-06T06:32:37.804Z,51.70
2017-07-06T06:35:05.271Z,52.90
2017-07-06T06:37:32.763Z,55.00
2017-07-06T06:40:00.330Z,55.80
2017-07-06T06:42:27.907Z,56.40
2017-07-06T06:44:55.364Z,54.80
2017-07-06T06:47:22.846Z,53.20
2017-07-06T06:49:50.302Z,50.70
2017-07-06T06:52:17.761Z,50.10
2017-07-06T06:54:45.234Z,48.70
2017-07-06T06:57:12.699Z,47.60
2017-07-06T06:59:40.937Z,46.80
2017-07-06T07:02:08.411Z,46.70
2017-07-06T07:04:35.876Z,46.50
2017-07-06T07:07:03.338Z,46.50
2017-07-06T07:09:31.584Z,47.40
2017-07-06T07:11:59.048Z,47.30
2017-07-06T07:14:27.153Z,47.90
2017-07-06T07:16:55.726Z,49.00
2017-07-06T07:19:24.398Z,50.40
2017-07-06T07:21:52.009Z,52.20
2017-07-06T07:24:21.200Z,53.00
2017-07-06T07:26:50.410Z,54.10
2017-07-06T07:29:18.698Z,55.40
2017-07-06T07:31:47.598Z,56.30
2017-07-06T07:34:15.358Z,56.70
2017-07-06T07:36:42.827Z,56.00
2017-07-06T07:39:13.408Z,55.80
2017-07-06T07:41:41.839Z,54.70
2017-07-06T07:44:09.311Z,54.70
2017-07-06T07:46:36.877Z,55.40
2017-07-06T07:49:05.136Z,56.60
2017-07-06T07:51:32.868Z,56.50
2017-07-06T07:54:00.370Z,57.80
2017-07-06T07:56:27.834Z,58.00
2017-07-06T07:58:55.332Z,57.80
2017-07-06T08:01:22.792Z,57.60
2017-07-06T08:03:50.252Z,60.20
2017-07-06T08:06:17.752Z,58.90
2017-07-06T08:08:45.214Z,59.70
2017-07-06T08:11:12.671Z,60.20
2017-07-06T08:13:40.144Z,60.20
2017-07-06T08:16:07.606Z,59.40
2017-07-06T08:18:35.054Z,59.00
2017-07-06T08:21:02.547Z,57.20
2017-07-06T08:23:30.006Z,57.80
2017-07-06T08:25:57.472Z,57.90
2017-07-06T08:28:24.948Z,57.30
2017-07-06T08:30:52.396Z,56.30
2017-07-06T08:33:19.852Z,56.00
2017-07-06T08:35:47.326Z,56.30
2017-07-06T08:38:14.855Z,55.60
2017-07-06T08:40:42.325Z,57.10
2017-07-06T08:43:09.797Z,56.70
2017-07-06T08:45:37.250Z,55.90
2017-07-06T08:48:04.716Z,56.20
2017-07-06T08:50:32.184Z,55.50
2017-07-06T08:53:00.419Z,54.40
2017-07-06T08:55:27.878Z,54.40
2017-07-06T08:57:55.335Z,53.60
2017-07-06T09:00:22.869Z,52.40
2017-07-06T09:02:50.324Z,53.90
2017-07-06T09:05:17.795Z,54.40
2017-07-06T09:07:45.269Z,53.90
2017-07-06T09:10:12.755Z,54.20
2017-07-06T09:12:40.991Z,51.50
2017-07-06T09:15:08.453Z,51.40
2017-07-06T09:17:35.921Z,52.50
2017-07-06T09:20:03.374Z,54.30
2017-07-06T09:22:30.835Z,54.20
2017-07-06T09:24:58.303Z,52.50
2017-07-06T09:27:25.772Z,52.80
2017-07-06T09:29:53.232Z,53.90
2017-07-06T09:32:20.680Z,52.10
2017-07-06T09:34:48.167Z,51.40
2017-07-06T09:37:15.602Z,52.10
2017-07-06T09:39:43.051Z,51.30
2017-07-06T09:42:11.287Z,50.90
2017-07-06T09:44:38.743Z,50.80
2017-07-06T09:47:06.194Z,51.50
2017-07-06T09:49:33.665Z,49.80
2017-07-06T09:52:01.122Z,49.70
2017-07-06T09:54:28.574Z,49.00
2017-07-06T09:56:56.039Z,51.40
2017-07-06T09:59:23.537Z,49.80
2017-07-06T10:01:50.981Z,49.50
2017-07-06T10:04:19.231Z,49.50
2017-07-06T10:06:46.702Z,49.50
2017-07-06T10:09:14.471Z,49.00
2017-07-06T10:11:42.711Z,48.10
2017-07-06T10:14:10.171Z,48.10
2017-07-06T10:16:37.634Z,48.70
2017-07-06T10:19:05.095Z,48.50
2017-07-06T10:21:32.563Z,48.50
2017-07-06T10:24:00.032Z,47.70
2017-07-06T10:26:28.259Z,46.50
2017-07-06T10:28:55.722Z,46.50
2017-07-06T10:31:23.261Z,47.50
2017-07-06T10:33:50.724Z,46.20
2017-07-06T10:36:18.180Z,46.10
2017-07-06T10:38:45.652Z,46.20
2017-07-06T10:41:13.107Z,45.10
2017-07-06T10:43:40.574Z,45.60
2017-07-06T10:46:08.097Z,43.40
2017-07-06T10:48:35.556Z,44.30
2017-07-06T10:51:03.019Z,45.50
2017-07-06T10:53:30.496Z,44.40
2017-07-06T10:55:57.989Z,43.90
2017-07-06T10:58:25.438Z,44.40
2017-07-06T11:00:52.893Z,43.90
2017-07-06T11:03:20.361Z,43.70
2017-07-06T11:05:47.815Z,44.00
2017-07-06T11:08:15.300Z,43.50
2017-07-06T11:10:42.771Z,44.40
2017-07-06T11:13:10.227Z,44.20
2017-07-06T11:15:37.698Z,45.00
2017-07-06T11:18:06.006Z,42.30
2017-07-06T11:20:33.454Z,43.20
2017-07-06T11:23:00.922Z,42.10
2017-07-06T11:25:28.374Z,42.00
2017-07-06T11:27:55.835Z,42.50
2017-07-06T11:30:23.295Z,43.10
2017-07-06T11:32:50.755Z,42.80
2017-07-06T11:35:18.216Z,44.40
2017-07-06T11:37:45.667Z,45.20
2017-07-06T11:40:13.907Z,44.30
2017-07-06T11:42:41.367Z,44.20
2017-07-06T11:45:08.825Z,45.10
2017-07-06T11:47:36.279Z,45.20
2017-07-06T11:50:03.743Z,43.30
2017-07-06T11:52:31.207Z,43.70
2017-07-06T11:54:58.655Z,44.80
2017-07-06T11:57:26.118Z,44.50
2017-07-06T11:59:53.572Z,43.80
2017-07-06T12:02:21.041Z,44.10
2017-07-06T12:04:48.499Z,44.70
2017-07-06T12:07:17.723Z,45.70
2017-07-06T12:09:45.179Z,45.10
2017-07-06T12:12:12.643Z,44.30
2017-07-06T12:14:40.099Z,44.40
2017-07-06T12:17:07.549Z,44.40
2017-07-06T12:19:35.030Z,44.70
2017-07-06T12:22:02.519Z,44.80
2017-07-06T12:24:29.993Z,44.30
2017-07-06T12:26:58.220Z,44.60
2017-07-06T12:29:25.673Z,44.60
2017-07-06T12:31:53.124Z,44.60
2017-07-06T12:34:20.603Z,43.80
2017-07-06T12:36:48.070Z,44.00
2017-07-06T12:39:15.524Z,44.60
2017-07-06T12:41:42.995Z,44.10
2017-07-06T12:44:10.453Z,43.70
2017-07-06T12:46:37.915Z,44.80
2017-07-06T12:49:05.374Z,44.30
2017-07-06T12:51:33.604Z,45.20
2017-07-06T12:54:01.074Z,45.10
2017-07-06T12:56:28.542Z,43.40
2017-07-06T12:58:56.019Z,44.80
2017-07-06T13:01:23.474Z,43.70
2017-07-06T13:03:50.941Z,43.60
2017-07-06T13:06:18.402Z,43.90
2017-07-06T13:08:46.622Z,44.60
2017-07-06T13:11:14.101Z,44.50
2017-07-06T13:13:41.557Z,44.90
2017-07-06T13:16:09.018Z,44.20
2017-07-06T13:18:36.515Z,44.80
2017-07-06T13:21:04.003Z,45.00
2017-07-06T13:23:31.499Z,44.40
2017-07-06T13:25:59.748Z,46.70
2017-07-06T13:28:27.227Z,46.40
2017-07-06T13:30:54.689Z,46.60
2017-07-06T13:33:22.161Z,46.60
2017-07-06T13:35:49.668Z,47.30
2017-07-06T13:38:17.144Z,47.20
2017-07-06T13:40:44.620Z,46.70
2017-07-06T13:43:12.872Z,47.80
2017-07-06T13:45:40.332Z,47.80
2017-07-06T13:48:07.802Z,47.00
2017-07-06T13:50:35.266Z,47.00
2017-07-06T13:53:03.536Z,46.60
2017-07-06T13:55:31.002Z,46.50
2017-07-06T13:57:59.221Z,45.70
2017-07-06T14:00:26.693Z,45.70
2017-07-06T14:02:54.163Z,46.80
2017-07-06T14:05:21.625Z,46.90
2017-07-06T14:07:49.106Z,46.90
2017-07-06T14:10:17.462Z,45.70
2017-07-06T14:12:44.913Z,45.60
2017-07-06T14:15:12.389Z,46.60
2017-07-06T14:17:39.854Z,46.90
2017-07-06T14:20:07.434Z,47.60
2017-07-06T14:22:34.966Z,48.00
2017-07-06T14:25:02.567Z,47.30
2017-07-06T14:27:30.019Z,45.50
2017-07-06T14:29:57.495Z,45.70
2017-07-06T14:32:24.948Z,44.90
2017-07-06T14:34:52.406Z,45.20
2017-07-06T14:37:19.874Z,45.30
2017-07-06T14:39:47.352Z,44.60
2017-07-06T14:42:14.819Z,43.90
2017-07-06T14:44:42.295Z,44.70
2017-07-06T14:47:10.522Z,44.60
2017-07-06T14:49:37.984Z,44.50
2017-07-06T14:52:05.455Z,44.50
2017-07-06T14:54:32.912Z,44.20
2017-07-06T14:57:00.374Z,44.60
2017-07-06T14:59:27.898Z,44.70
2017-07-06T15:01:55.367Z,45.00
2017-07-06T15:04:22.827Z,44.90
2017-07-06T15:06:50.323Z,45.10
2017-07-06T15:09:18.554Z,45.80
2017-07-06T15:11:46.023Z,45.80
2017-07-06T15:14:13.526Z,46.60
2017-07-06T15:16:41.097Z,47.60
2017-07-06T15:19:08.557Z,48.30
2017-07-06T15:21:36.044Z,48.60
2017-07-06T15:24:03.625Z,49.10
2017-07-06T15:26:31.881Z,52.20
2017-07-06T15:28:59.342Z,52.20
2017-07-06T15:31:26.812Z,53.30
2017-07-06T15:33:54.448Z,53.80
2017-07-06T15:36:21.921Z,54.70
2017-07-06T15:38:49.370Z,56.40
2017-07-06T15:41:16.997Z,56.40
2017-07-06T15:43:44.699Z,55.70
2017-07-06T15:46:12.155Z,56.90
2017-07-06T15:48:39.724Z,54.90
2017-07-06T15:51:07.960Z,54.60
2017-07-06T15:53:35.431Z,54.50
2017-07-06T15:56:04.349Z,55.90
2017-07-06T15:58:31.936Z,54.70
2017-07-06T16:00:59.398Z,54.60
2017-07-06T16:03:26.858Z,52.90
2017-07-06T16:05:54.343Z,51.10
2017-07-06T16:08:21.804Z,49.90
2017-07-06T16:10:49.266Z,50.40
2017-07-06T16:13:16.753Z,49.60
2017-07-06T16:15:44.241Z,50.10
2017-07-06T16:18:11.742Z,50.80
2017-07-06T16:20:39.217Z,50.00
2017-07-06T16:23:07.442Z,51.70
2017-07-06T16:25:34.928Z,51.10
2017-07-06T16:28:02.418Z,51.30
2017-07-06T16:30:29.875Z,51.70
2017-07-06T16:32:58.103Z,54.60
2017-07-06T16:35:25.572Z,54.50
2017-07-06T16:37:53.051Z,56.10
2017-07-06T16:40:20.514Z,57.20
2017-07-06T16:42:48.761Z,56.80
2017-07-06T16:45:16.220Z,56.80
2017-07-06T16:47:43.719Z,57.10
2017-07-06T16:50:11.214Z,56.90
2017-07-06T16:52:38.763Z,56.90
2017-07-06T16:55:08.613Z,57.10
2017-07-06T16:57:36.095Z,58.10
2017-07-06T17:00:04.478Z,58.10
2017-07-06T17:02:32.730Z,58.50
2017-07-06T17:05:00.289Z,58.40
2017-07-06T17:07:27.756Z,59.30
2017-07-06T17:09:55.999Z,59.20
2017-07-06T17:12:23.502Z,59.20
2017-07-06T17:14:50.958Z,59.20
2017-07-06T17:17:18.439Z,59.60
2017-07-06T17:19:45.969Z,63.80
2017-07-06T17:22:13.430Z,66.10
2017-07-06T17:24:40.892Z,66.90
2017-07-06T17:27:08.374Z,68.00
2017-07-06T17:29:35.856Z,69.00
2017-07-06T17:32:03.374Z,69.20
2017-07-06T17:34:30.842Z,68.90
2017-07-06T17:36:58.304Z,73.30
2017-07-06T17:39:25.775Z,75.80
2017-07-06T17:41:53.246Z,77.60
2017-07-06T17:44:20.756Z,76.60
2017-07-06T17:46:48.287Z,78.00
2017-07-06T17:49:15.787Z,77.90
2017-07-06T17:51:43.244Z,78.50
2017-07-06T17:54:10.718Z,77.90
2017-07-06T17:56:38.424Z,77.40
2017-07-06T17:59:06.662Z,78.90
2017-07-06T18:01:34.122Z,78.80
2017-07-06T18:04:01.606Z,79.10
2017-07-06T18:06:29.088Z,78.80
2017-07-06T18:08:56.578Z,79.80
2017-07-06T18:11:24.055Z,79.60
2017-07-06T18:13:51.510Z,79.80
2017-07-06T18:16:19.004Z,80.40
2017-07-06T18:18:46.651Z,80.80
2017-07-06T18:21:14.885Z,78.90
2017-07-06T18:23:42.406Z,78.70
2017-07-06T18:26:10.127Z,78.40
2017-07-06T18:28:37.595Z,78.70
2017-07-06T18:31:05.054Z,77.60
2017-07-06T18:33:32.527Z,79.50
2017-07-06T18:36:00.000Z,78.40
2017-07-06T18:38:27.461Z,79.50
2017-07-06T18:40:54.940Z,78.40
2017-07-06T18:43:22.417Z,80.00
2017-07-06T18:45:49.921Z,79.50
2017-07-06T18:48:17.399Z,78.60
2017-07-06T18:50:44.850Z,78.10
2017-07-06T18:53:12.457Z,79.00
2017-07-06T18:55:39.948Z,80.00
2017-07-06T18:58:07.474Z,81.70
2017-07-06T19:00:34.947Z,83.20
2017-07-06T19:03:02.467Z,84.80
2017-07-06T19:05:37.651Z,83.10
2017-07-06T19:08:05.880Z,83.20
2017-07-06T19:10:33.353Z,83.20
2017-07-06T19:13:00.818Z,82.60
2017-07-06T19:15:28.749Z,83.40
2017-07-06T19:17:56.228Z,84.00
2017-07-06T19:20:23.789Z,86.80
2017-07-06T19:22:51.234Z,86.10
2017-07-06T19:25:18.715Z,87.00
2017-07-06T19:27:46.172Z,88.10
2017-07-06T19:30:14.413Z,88.60
2017-07-06T19:32:41.874Z,88.60
2017-07-06T19:35:09.402Z,89.00
2017-07-06T19:37:36.867Z,89.80
2017-07-06T19:40:04.534Z,89.10
2017-07-06T19:42:32.007Z,88.20
2017-07-06T19:44:59.515Z,89.00
2017-07-06T19:47:27.107Z,89.20
2017-07-06T19:49:54.570Z,88.70
2017-07-06T19:52:22.033Z,88.30
2017-07-06T19:54:49.508Z,88.50
2017-07-06T19:57:16.967Z,88.00
2017-07-06T19:59:44.426Z,88.20
2017-07-06T20:02:12.077Z,88.30
2017-07-06T20:04:39.553Z,89.40
2017-07-06T20:07:07.495Z,88.80
2017-07-06T20:09:34.967Z,88.50
2017-07-06T20:12:02.459Z,88.80
2017-07-06T20:14:29.916Z,90.10
2017-07-06T20:16:57.383Z,89.60
2017-07-06T20:19:24.853Z,88.20
2017-07-06T20:21:52.315Z,87.50
2017-07-06T20:24:19.794Z,87.20
2017-07-06T20:26:47.255Z,87.10
2017-07-06T20:29:14.849Z,88.40
2017-07-06T20:31:42.322Z,90.30
2017-07-06T20:34:09.799Z,90.40
2017-07-06T20:36:37.260Z,89.80
2017-07-06T20:39:05.662Z,89.00
2017-07-06T20:41:33.115Z,88.30
2017-07-06T20:44:01.082Z,88.00
2017-07-06T20:46:28.566Z,88.80
2017-07-06T20:48:56.026Z,89.10
2017-07-06T20:51:23.508Z,89.70
2017-07-06T20:53:50.979Z,90.00
2017-07-06T20:56:18.543Z,90.20
2017-07-06T20:58:46.035Z,90.60
2017-07-06T21:01:13.503Z,90.80
2017-07-06T21:03:41.015Z,90.90
2017-07-06T21:06:08.694Z,90.50
2017-07-06T21:08:36.179Z,90.70
2017-07-06T21:11:03.673Z,90.40
2017-07-06T21:13:31.144Z,89.90
2017-07-06T21:15:58.621Z,89.40
2017-07-06T21:18:26.110Z,89.50
2017-07-06T21:20:53.584Z,89.20
2017-07-06T21:23:21.080Z,89.50
2017-07-06T21:25:48.584Z,89.50
2017-07-06T21:28:16.106Z,89.10
2017-07-06T21:30:43.609Z,87.80
2017-07-06T21:33:11.083Z,88.70
2017-07-06T21:35:38.556Z,88.20
2017-07-06T21:38:06.030Z,88.20
2017-07-06T21:40:33.507Z,89.20
2017-07-06T21:43:00.984Z,89.50
2017-07-06T21:45:29.226Z,90.50
2017-07-06T21:47:56.716Z,90.10
2017-07-06T21:50:24.183Z,90.10
2017-07-06T21:52:51.695Z,90.20
2017-07-06T21:55:19.217Z,89.90
2017-07-06T21:57:46.718Z,89.60
2017-07-06T22:00:14.183Z,89.80
2017-07-06T22:02:41.674Z,88.30
2017-07-06T22:05:09.146Z,87.80
2017-07-06T22:07:36.650Z,88.00
2017-07-06T22:10:04.162Z,88.90
2017-07-06T22:12:31.644Z,88.60
2017-07-06T22:14:59.148Z,89.30
2017-07-06T22:17:27.391Z,89.60
2017-07-06T22:19:54.859Z,89.40
2017-07-06T22:22:22.407Z,89.70
2017-07-06T22:24:49.895Z,90.50
2017-07-06T22:27:18.131Z,90.60
2017-07-06T22:29:45.645Z,90.60
2017-07-06T22:32:13.110Z,91.00
2017-07-06T22:34:40.571Z,91.10
2017-07-06T22:37:08.062Z,91.10
2017-07-06T22:39:35.675Z,90.90
2017-07-06T22:42:03.487Z,90.90
2017-07-06T22:44:31.087Z,91.30
2017-07-06T22:46:59.356Z,91.10
2017-07-06T22:49:27.678Z,90.90
2017-07-06T22:51:55.135Z,90.90
2017-07-06T22:54:22.618Z,90.70
2017-07-06T22:56:50.267Z,90.10
2017-07-06T22:59:17.735Z,90.20
2017-07-06T23:01:45.273Z,90.40
2017-07-06T23:04:12.753Z,90.80
2017-07-06T23:06:40.256Z,90.60
2017-07-06T23:09:07.714Z,90.50
2017-07-06T23:11:35.194Z,90.80
2017-07-06T23:14:02.663Z,91.50
2017-07-06T23:16:30.128Z,91.40
2017-07-06T23:18:57.595Z,91.30
2017-07-06T23:21:25.060Z,91.40
2017-07-06T23:23:52.518Z,91.10
2017-07-06T23:26:19.997Z,90.40
2017-07-06T23:28:47.463Z,88.70
2017-07-06T23:31:14.952Z,89.30
2017-07-06T23:33:42.417Z,90.30
2017-07-06T23:36:09.878Z,90.90
2017-07-06T23:38:37.350Z,91.00
2017-07-06T23:41:04.819Z,91.00
2017-07-06T23:43:32.299Z,90.50
2017-07-06T23:46:00.550Z,90.70
2017-07-06T23:48:28.011Z,90.70
2017-07-06T23:50:55.488Z,90.70
2017-07-06T23:53:22.946Z,90.70
2017-07-06T23:55:50.402Z,90.80
2017-07-06T23:58:17.892Z,91.00
